createdAt,value
2017-12-20T00:00:19.618Z,23.80
2017-12-20T00:00:54.648Z,23.10
2017-12-20T00:01:30.122Z,25.20
2017-12-20T00:02:05.327Z,24.30
2017-12-20T00:02:40.708Z,24.70
2017-12-20T00:03:15.999Z,25.10
2017-12-20T00:03:51.005Z,24.90
2017-12-20T00:04:26.078Z,24.90
2017-12-20T00:05:01.283Z,24.80
2017-12-20T00:05:36.648Z,24.70
2017-12-20T00:06:12.178Z,25.10
2017-12-20T00:06:47.656Z,24.60
2017-12-20T00:07:22.743Z,24.80
2017-12-20T00:07:58.313Z,25.20
2017-12-20T00:08:33.507Z,24.90
2017-12-20T00:09:08.885Z,24.50
2017-12-20T00:09:44.089Z,24.80
2017-12-20T00:10:19.497Z,25.00
2017-12-20T00:10:54.893Z,24.40
2017-12-20T00:11:30.282Z,24.20
2017-12-20T00:12:05.457Z,23.90
2017-12-20T00:12:40.653Z,24.00
2017-12-20T00:13:16.121Z,24.80
2017-12-20T00:13:51.530Z,24.20
2017-12-20T00:14:26.503Z,24.50
2017-12-20T00:15:01.500Z,25.90
2017-12-20T00:15:37.104Z,25.80
2017-12-20T00:16:12.709Z,25.20
2017-12-20T00:16:48.193Z,25.60
2017-12-20T00:17:23.671Z,26.20
2017-12-20T00:17:59.074Z,25.20
2017-12-20T00:18:34.452Z,25.60
2017-12-20T00:19:09.645Z,26.40
2017-12-20T00:19:44.616Z,24.60
2017-12-20T00:20:20.115Z,25.50
2017-12-20T00:20:55.623Z,26.30
2017-12-20T00:21:31.214Z,25.70
2017-12-20T00:22:06.720Z,25.80
2017-12-20T00:22:41.782Z,25.40
2017-12-20T00:23:16.983Z,25.90
2017-12-20T00:23:52.057Z,27.90
2017-12-20T00:24:27.255Z,28.10
2017-12-20T00:25:03.624Z,27.40
2017-12-20T00:25:39.127Z,26.20
2017-12-20T00:26:15.130Z,26.10
2017-12-20T00:26:50.532Z,26.00
2017-12-20T00:27:25.830Z,25.60
2017-12-20T00:28:01.094Z,27.10
2017-12-20T00:28:36.592Z,26.30
2017-12-20T00:29:11.858Z,26.50
2017-12-20T00:29:47.654Z,26.60
2017-12-20T00:30:22.821Z,26.80
2017-12-20T00:30:57.911Z,26.00
2017-12-20T00:31:33.122Z,27.30
2017-12-20T00:32:08.511Z,27.90
2017-12-20T00:32:44.010Z,27.70
2017-12-20T00:33:19.482Z,28.60
2017-12-20T00:33:54.778Z,29.60
2017-12-20T00:34:29.951Z,29.40
2017-12-20T00:35:05.242Z,28.10
2017-12-20T00:35:40.521Z,26.80
2017-12-20T00:36:15.646Z,26.80
2017-12-20T00:36:50.814Z,27.20
2017-12-20T00:37:26.611Z,28.40
2017-12-20T00:38:01.893Z,28.60
2017-12-20T00:38:37.200Z,28.30
2017-12-20T00:39:12.397Z,27.50
2017-12-20T00:39:47.774Z,26.80
2017-12-20T00:40:22.984Z,27.00
2017-12-20T00:40:58.353Z,28.30
2017-12-20T00:41:33.486Z,27.60
2017-12-20T00:42:08.754Z,26.80
2017-12-20T00:42:44.060Z,28.10
2017-12-20T00:43:19.436Z,28.40
2017-12-20T00:43:54.735Z,28.60
2017-12-20T00:44:30.238Z,27.80
2017-12-20T00:45:05.603Z,28.10
2017-12-20T00:45:41.101Z,29.40
2017-12-20T00:46:16.497Z,28.10
2017-12-20T00:46:51.999Z,29.30
2017-12-20T00:47:27.274Z,30.00
2017-12-20T00:48:02.479Z,27.30
2017-12-20T00:48:37.646Z,27.50
2017-12-20T00:49:12.847Z,27.70
2017-12-20T00:49:48.162Z,26.50
2017-12-20T00:50:23.343Z,27.40
2017-12-20T00:50:58.641Z,28.10
2017-12-20T00:51:33.735Z,28.10
2017-12-20T00:52:08.930Z,28.10
2017-12-20T00:52:44.199Z,28.20
2017-12-20T00:53:19.499Z,27.80
2017-12-20T00:53:54.776Z,27.00
2017-12-20T00:54:30.077Z,29.10
2017-12-20T00:55:05.251Z,28.50
2017-12-20T00:55:40.548Z,28.20
2017-12-20T00:56:16.154Z,28.50
2017-12-20T00:56:51.439Z,27.70
2017-12-20T00:57:26.739Z,27.60
2017-12-20T00:58:02.314Z,27.90
2017-12-20T00:58:37.604Z,28.40
2017-12-20T00:59:13.091Z,28.80
2017-12-20T00:59:48.674Z,28.90
2017-12-20T01:00:23.950Z,28.90
2017-12-20T01:00:58.837Z,29.70
2017-12-20T01:01:34.166Z,29.30
2017-12-20T01:02:09.543Z,29.40
2017-12-20T01:02:45.140Z,30.60
2017-12-20T01:03:20.514Z,29.90
2017-12-20T01:03:55.711Z,30.50
2017-12-20T01:04:31.287Z,30.30
2017-12-20T01:05:06.881Z,29.50
2017-12-20T01:05:42.255Z,28.20
2017-12-20T01:06:17.756Z,28.50
2017-12-20T01:06:52.778Z,30.20
2017-12-20T01:07:28.061Z,30.00
2017-12-20T01:08:03.359Z,31.00
2017-12-20T01:08:38.632Z,31.30
2017-12-20T01:09:13.827Z,31.00
2017-12-20T01:09:48.911Z,29.80
2017-12-20T01:10:24.525Z,29.90
2017-12-20T01:11:00.116Z,31.00
2017-12-20T01:11:35.339Z,31.30
2017-12-20T01:12:10.907Z,30.30
2017-12-20T01:12:46.501Z,30.30
2017-12-20T01:13:21.797Z,29.50
2017-12-20T01:13:57.064Z,31.10
2017-12-20T01:14:32.469Z,30.70
2017-12-20T01:15:07.737Z,30.80
2017-12-20T01:15:43.550Z,30.70
2017-12-20T01:16:19.016Z,31.40
2017-12-20T01:16:54.644Z,32.50
2017-12-20T01:17:30.419Z,31.70
2017-12-20T01:18:05.716Z,33.50
2017-12-20T01:18:41.114Z,34.00
2017-12-20T01:19:16.483Z,31.30
2017-12-20T01:19:51.690Z,30.30
2017-12-20T01:20:27.162Z,31.00
2017-12-20T01:21:02.568Z,30.40
2017-12-20T01:21:38.083Z,30.70
2017-12-20T01:22:13.484Z,31.80
2017-12-20T01:22:48.957Z,32.20
2017-12-20T01:23:24.453Z,31.10
2017-12-20T01:24:00.167Z,31.90
2017-12-20T01:24:35.340Z,32.80
2017-12-20T01:25:10.637Z,31.60
2017-12-20T01:25:45.909Z,31.60
2017-12-20T01:26:21.408Z,32.70
2017-12-20T01:26:56.808Z,32.40
2017-12-20T01:27:32.004Z,31.20
2017-12-20T01:28:07.288Z,31.40
2017-12-20T01:28:42.387Z,31.50
2017-12-20T01:29:17.560Z,32.10
2017-12-20T01:29:52.756Z,32.20
2017-12-20T01:30:27.973Z,32.60
2017-12-20T01:31:03.345Z,31.50
2017-12-20T01:31:38.639Z,30.60
2017-12-20T01:32:14.040Z,31.20
2017-12-20T01:32:49.632Z,31.80
2017-12-20T01:33:24.712Z,32.00
2017-12-20T01:34:00.425Z,31.90
2017-12-20T01:34:35.491Z,32.90
2017-12-20T01:35:10.790Z,32.50
2017-12-20T01:35:46.302Z,32.10
2017-12-20T01:36:21.880Z,31.30
2017-12-20T01:36:57.200Z,32.60
2017-12-20T01:37:32.483Z,33.40
2017-12-20T01:38:07.781Z,32.10
2017-12-20T01:38:43.264Z,32.00
2017-12-20T01:39:18.469Z,32.40
2017-12-20T01:39:53.744Z,33.00
2017-12-20T01:40:28.965Z,32.10
2017-12-20T01:41:04.364Z,32.10
2017-12-20T01:41:39.637Z,32.20
2017-12-20T01:42:14.866Z,31.80
2017-12-20T01:42:50.538Z,32.20
2017-12-20T01:43:26.244Z,32.50
2017-12-20T01:44:01.616Z,32.70
2017-12-20T01:44:37.014Z,33.10
2017-12-20T01:45:12.285Z,33.50
2017-12-20T01:45:47.689Z,34.20
2017-12-20T01:46:23.263Z,32.80
2017-12-20T01:46:58.490Z,33.00
2017-12-20T01:47:33.787Z,33.60
2017-12-20T01:48:08.755Z,33.50
2017-12-20T01:48:44.461Z,33.40
2017-12-20T01:49:20.125Z,33.50
2017-12-20T01:49:55.444Z,35.20
2017-12-20T01:50:30.716Z,33.30
2017-12-20T01:51:06.012Z,33.10
2017-12-20T01:51:41.088Z,35.50
2017-12-20T01:52:16.512Z,35.00
2017-12-20T01:52:51.814Z,32.90
2017-12-20T01:53:27.099Z,33.80
2017-12-20T01:54:02.407Z,33.50
2017-12-20T01:54:37.477Z,32.70
2017-12-20T01:55:13.081Z,33.40
2017-12-20T01:55:48.250Z,34.50
2017-12-20T01:56:23.743Z,35.40
2017-12-20T01:56:59.127Z,35.10
2017-12-20T01:57:34.646Z,35.80
2017-12-20T01:58:09.547Z,36.70
2017-12-20T01:58:44.719Z,36.80
2017-12-20T01:59:20.015Z,37.20
2017-12-20T01:59:55.387Z,34.40
2017-12-20T02:00:30.590Z,34.00
2017-12-20T02:01:05.760Z,35.00
2017-12-20T02:01:41.059Z,35.80
2017-12-20T02:02:16.360Z,35.10
2017-12-20T02:02:51.855Z,36.00
2017-12-20T02:03:27.334Z,35.60
2017-12-20T02:04:02.830Z,35.40
2017-12-20T02:04:37.932Z,37.70
2017-12-20T02:05:13.107Z,35.80
2017-12-20T02:05:48.508Z,34.70
2017-12-20T02:06:23.988Z,36.00
2017-12-20T02:06:59.283Z,34.80
2017-12-20T02:07:34.582Z,36.20
2017-12-20T02:08:09.471Z,37.20
2017-12-20T02:08:45.344Z,36.50
2017-12-20T02:09:20.686Z,36.60
2017-12-20T02:09:55.952Z,37.00
2017-12-20T02:10:31.130Z,36.50
2017-12-20T02:11:06.428Z,35.40
2017-12-20T02:11:41.897Z,35.20
2017-12-20T02:12:17.115Z,36.70
2017-12-20T02:12:52.489Z,36.20
2017-12-20T02:13:27.788Z,35.80
2017-12-20T02:14:03.067Z,34.30
2017-12-20T02:14:38.362Z,35.00
2017-12-20T02:15:13.564Z,35.40
2017-12-20T02:15:48.731Z,35.00
2017-12-20T02:16:24.524Z,37.90
2017-12-20T02:16:59.693Z,38.10
2017-12-20T02:17:35.216Z,36.50
2017-12-20T02:18:10.485Z,39.10
2017-12-20T02:18:45.883Z,39.20
2017-12-20T02:19:21.254Z,36.60
2017-12-20T02:19:56.459Z,35.80
2017-12-20T02:20:31.835Z,37.10
2017-12-20T02:21:06.940Z,35.70
2017-12-20T02:21:42.518Z,36.70
2017-12-20T02:22:18.026Z,35.40
2017-12-20T02:22:53.658Z,35.30
2017-12-20T02:23:29.043Z,35.20
2017-12-20T02:24:04.419Z,34.40
2017-12-20T02:24:39.726Z,36.20
2017-12-20T02:25:15.098Z,36.50
2017-12-20T02:25:50.601Z,36.80
2017-12-20T02:26:26.176Z,35.90
2017-12-20T02:27:01.490Z,38.20
2017-12-20T02:27:37.562Z,38.40
2017-12-20T02:28:12.902Z,38.00
2017-12-20T02:28:48.281Z,36.80
2017-12-20T02:29:23.471Z,37.10
2017-12-20T02:29:58.653Z,37.90
2017-12-20T02:30:34.361Z,37.30
2017-12-20T02:31:09.539Z,38.60
2017-12-20T02:31:44.735Z,37.70
2017-12-20T02:32:19.604Z,37.20
2017-12-20T02:32:54.900Z,36.70
2017-12-20T02:33:30.497Z,35.70
2017-12-20T02:34:05.696Z,37.20
2017-12-20T02:34:40.967Z,38.60
2017-12-20T02:35:16.669Z,38.90
2017-12-20T02:35:51.843Z,37.90
2017-12-20T02:36:27.036Z,38.10
2017-12-20T02:37:02.412Z,39.10
2017-12-20T02:37:37.715Z,37.80
2017-12-20T02:38:13.088Z,37.30
2017-12-20T02:38:48.527Z,37.10
2017-12-20T02:39:24.003Z,37.40
2017-12-20T02:39:59.099Z,37.90
2017-12-20T02:40:34.640Z,38.30
2017-12-20T02:41:09.816Z,38.40
2017-12-20T02:41:45.107Z,37.00
2017-12-20T02:42:20.432Z,37.50
2017-12-20T02:42:55.818Z,37.80
2017-12-20T02:43:31.326Z,36.50
2017-12-20T02:44:06.748Z,36.20
2017-12-20T02:44:42.259Z,37.40
2017-12-20T02:45:17.642Z,37.80
2017-12-20T02:45:52.838Z,37.40
2017-12-20T02:46:28.044Z,36.80
2017-12-20T02:47:03.441Z,37.20
2017-12-20T02:47:40.424Z,38.30
2017-12-20T02:48:15.649Z,37.80
2017-12-20T02:48:51.035Z,38.00
2017-12-20T02:49:26.161Z,36.10
2017-12-20T02:50:01.537Z,36.30
2017-12-20T02:50:37.191Z,36.10
2017-12-20T02:51:12.566Z,35.10
2017-12-20T02:51:47.972Z,34.60
2017-12-20T02:52:23.346Z,36.30
2017-12-20T02:52:58.656Z,37.90
2017-12-20T02:53:34.047Z,37.30
2017-12-20T02:54:09.271Z,38.40
2017-12-20T02:54:44.694Z,37.00
2017-12-20T02:55:19.918Z,36.50
2017-12-20T02:55:55.204Z,37.40
2017-12-20T02:56:30.503Z,37.70
2017-12-20T02:57:05.700Z,37.20
2017-12-20T02:57:41.010Z,37.00
2017-12-20T02:58:16.300Z,37.30
2017-12-20T02:58:51.824Z,37.50
2017-12-20T02:59:27.112Z,37.50
2017-12-20T03:00:02.651Z,37.30
2017-12-20T03:00:38.042Z,38.40
2017-12-20T03:01:13.435Z,36.60
2017-12-20T03:01:48.517Z,37.20
2017-12-20T03:02:23.519Z,37.70
2017-12-20T03:02:58.799Z,38.50
2017-12-20T03:03:34.099Z,38.70
2017-12-20T03:04:09.555Z,38.70
2017-12-20T03:04:44.671Z,38.40
2017-12-20T03:05:19.993Z,38.70
2017-12-20T03:05:55.590Z,37.60
2017-12-20T03:06:30.760Z,38.60
2017-12-20T03:07:06.256Z,39.80
2017-12-20T03:07:43.318Z,39.60
2017-12-20T03:08:18.711Z,40.60
2017-12-20T03:08:54.280Z,39.30
2017-12-20T03:09:29.575Z,38.90
2017-12-20T03:10:04.547Z,38.50
2017-12-20T03:10:39.969Z,38.60
2017-12-20T03:11:15.140Z,38.70
2017-12-20T03:11:50.336Z,38.80
2017-12-20T03:12:25.502Z,39.60
2017-12-20T03:13:00.798Z,41.90
2017-12-20T03:13:36.070Z,40.40
2017-12-20T03:14:11.370Z,41.00
2017-12-20T03:14:46.545Z,40.60
2017-12-20T03:15:22.042Z,39.70
2017-12-20T03:15:57.659Z,39.90
2017-12-20T03:16:33.358Z,41.20
2017-12-20T03:17:08.634Z,41.00
2017-12-20T03:17:43.643Z,39.70
2017-12-20T03:18:18.923Z,41.50
2017-12-20T03:18:54.462Z,42.80
2017-12-20T03:19:29.647Z,43.30
2017-12-20T03:20:04.734Z,43.70
2017-12-20T03:20:40.215Z,43.00
2017-12-20T03:21:15.450Z,43.30
2017-12-20T03:21:50.645Z,43.50
2017-12-20T03:22:25.554Z,44.00
2017-12-20T03:23:00.833Z,43.40
2017-12-20T03:23:36.259Z,42.90
2017-12-20T03:24:11.648Z,42.60
2017-12-20T03:24:47.470Z,41.60
2017-12-20T03:25:22.978Z,41.30
2017-12-20T03:25:58.393Z,43.50
2017-12-20T03:26:33.904Z,42.30
2017-12-20T03:27:09.528Z,44.00
2017-12-20T03:27:44.823Z,44.70
2017-12-20T03:28:19.941Z,45.80
2017-12-20T03:28:55.334Z,43.30
2017-12-20T03:29:30.549Z,41.10
2017-12-20T03:30:05.748Z,42.20
2017-12-20T03:30:41.168Z,43.20
2017-12-20T03:31:16.264Z,44.10
2017-12-20T03:31:51.531Z,42.80
2017-12-20T03:32:26.523Z,40.00
2017-12-20T03:33:01.947Z,42.50
2017-12-20T03:33:37.143Z,43.40
2017-12-20T03:34:12.472Z,43.00
2017-12-20T03:34:47.768Z,43.00
2017-12-20T03:35:23.082Z,43.30
2017-12-20T03:35:58.576Z,42.70
2017-12-20T03:36:33.998Z,43.80
2017-12-20T03:37:09.546Z,43.30
2017-12-20T03:37:44.956Z,41.60
2017-12-20T03:38:20.346Z,41.70
2017-12-20T03:38:55.760Z,42.80
2017-12-20T03:39:31.049Z,43.00
2017-12-20T03:40:06.383Z,44.50
2017-12-20T03:40:41.774Z,42.00
2017-12-20T03:41:17.094Z,42.30
2017-12-20T03:41:52.283Z,41.80
2017-12-20T03:42:27.939Z,42.30
2017-12-20T03:43:03.133Z,42.80
2017-12-20T03:43:38.255Z,43.30
2017-12-20T03:44:13.552Z,44.50
2017-12-20T03:44:48.967Z,45.30
2017-12-20T03:45:24.456Z,44.70
2017-12-20T03:45:59.677Z,45.80
2017-12-20T03:46:35.070Z,46.50
2017-12-20T03:47:10.396Z,44.20
2017-12-20T03:47:45.615Z,44.60
2017-12-20T03:48:21.241Z,43.70
2017-12-20T03:48:56.539Z,43.10
2017-12-20T03:49:31.567Z,45.00
2017-12-20T03:50:07.154Z,43.30
2017-12-20T03:50:42.675Z,40.20
2017-12-20T03:51:17.971Z,42.40
2017-12-20T03:51:53.389Z,46.40
2017-12-20T03:52:28.990Z,43.20
2017-12-20T03:53:04.522Z,41.20
2017-12-20T03:53:39.603Z,43.20
2017-12-20T03:54:14.914Z,44.70
2017-12-20T03:54:50.500Z,42.60
2017-12-20T03:55:25.822Z,42.60
2017-12-20T03:56:01.200Z,43.80
2017-12-20T03:56:36.511Z,42.20
2017-12-20T03:57:12.404Z,42.60
2017-12-20T03:57:47.911Z,44.50
2017-12-20T03:58:23.523Z,45.90
2017-12-20T03:58:58.829Z,43.70
2017-12-20T03:59:34.112Z,44.30
2017-12-20T04:00:09.321Z,45.00
2017-12-20T04:00:44.599Z,44.50
2017-12-20T04:01:19.803Z,46.10
2017-12-20T04:01:55.366Z,44.60
2017-12-20T04:02:30.768Z,43.70
2017-12-20T04:03:06.241Z,44.80
2017-12-20T04:03:41.766Z,46.20
2017-12-20T04:04:17.090Z,44.90
2017-12-20T04:04:52.427Z,45.30
2017-12-20T04:05:27.690Z,45.20
2017-12-20T04:06:02.887Z,48.00
2017-12-20T04:06:38.065Z,47.50
2017-12-20T04:07:13.256Z,45.80
2017-12-20T04:07:48.426Z,46.90
2017-12-20T04:08:23.627Z,45.40
2017-12-20T04:08:58.928Z,45.20
2017-12-20T04:09:34.323Z,43.30
2017-12-20T04:10:09.728Z,43.40
2017-12-20T04:10:44.892Z,42.40
2017-12-20T04:11:20.091Z,44.00
2017-12-20T04:11:55.386Z,44.70
2017-12-20T04:12:30.552Z,42.60
2017-12-20T04:13:05.919Z,43.90
2017-12-20T04:13:41.516Z,43.00
2017-12-20T04:14:17.019Z,43.60
2017-12-20T04:14:52.215Z,41.40
2017-12-20T04:15:27.561Z,42.50
2017-12-20T04:16:02.732Z,42.20
2017-12-20T04:16:38.022Z,44.10
2017-12-20T04:17:13.188Z,47.00
2017-12-20T04:17:48.977Z,44.40
2017-12-20T04:18:24.344Z,43.60
2017-12-20T04:18:59.641Z,44.30
2017-12-20T04:19:35.139Z,43.70
2017-12-20T04:20:10.434Z,44.30
2017-12-20T04:20:45.830Z,44.40
2017-12-20T04:21:21.203Z,42.00
2017-12-20T04:21:56.398Z,43.60
2017-12-20T04:22:31.569Z,44.00
2017-12-20T04:23:06.958Z,44.40
2017-12-20T04:23:42.237Z,44.90
2017-12-20T04:24:17.529Z,45.40
2017-12-20T04:24:52.629Z,45.00
2017-12-20T04:25:28.218Z,45.60
2017-12-20T04:26:03.687Z,45.00
2017-12-20T04:26:39.778Z,44.90
2017-12-20T04:27:15.288Z,44.90
2017-12-20T04:27:50.757Z,43.00
2017-12-20T04:28:26.055Z,44.80
2017-12-20T04:29:01.230Z,46.10
2017-12-20T04:29:36.634Z,44.90
2017-12-20T04:30:11.927Z,43.20
2017-12-20T04:30:47.421Z,44.40
2017-12-20T04:31:22.687Z,44.10
2017-12-20T04:31:58.080Z,43.10
2017-12-20T04:32:33.173Z,41.80
2017-12-20T04:33:08.250Z,42.40
2017-12-20T04:33:43.650Z,41.90
2017-12-20T04:34:19.018Z,43.60
2017-12-20T04:34:54.413Z,44.40
2017-12-20T04:35:29.900Z,44.20
2017-12-20T04:36:05.198Z,44.90
2017-12-20T04:36:40.465Z,44.90
2017-12-20T04:37:15.557Z,47.10
2017-12-20T04:37:50.747Z,47.30
2017-12-20T04:38:25.915Z,47.50
2017-12-20T04:39:01.309Z,46.90
2017-12-20T04:39:36.372Z,45.50
2017-12-20T04:40:11.571Z,45.70
2017-12-20T04:40:47.165Z,45.80
2017-12-20T04:41:22.254Z,46.00
2017-12-20T04:41:57.632Z,44.20
2017-12-20T04:42:33.223Z,45.50
2017-12-20T04:43:08.391Z,42.50
2017-12-20T04:43:43.883Z,42.30
2017-12-20T04:44:19.185Z,44.80
2017-12-20T04:44:54.459Z,43.70
2017-12-20T04:45:29.970Z,43.30
2017-12-20T04:46:05.171Z,43.60
2017-12-20T04:46:40.568Z,43.90
2017-12-20T04:47:15.635Z,43.80
2017-12-20T04:47:51.226Z,43.60
2017-12-20T04:48:26.591Z,43.50
2017-12-20T04:49:02.041Z,44.60
2017-12-20T04:49:37.382Z,44.90
2017-12-20T04:50:12.353Z,45.70
2017-12-20T04:50:47.956Z,44.90
2017-12-20T04:51:23.553Z,41.20
2017-12-20T04:51:58.839Z,41.30
2017-12-20T04:52:33.912Z,42.80
2017-12-20T04:53:09.312Z,45.00
2017-12-20T04:53:44.573Z,45.30
2017-12-20T04:54:19.774Z,45.10
2017-12-20T04:54:55.239Z,44.50
2017-12-20T04:55:30.931Z,43.80
2017-12-20T04:56:06.436Z,43.70
2017-12-20T04:56:41.638Z,42.30
2017-12-20T04:57:16.829Z,41.30
2017-12-20T04:57:52.312Z,42.50
2017-12-20T04:58:27.807Z,43.90
2017-12-20T04:59:03.344Z,44.90
2017-12-20T04:59:38.887Z,44.10
2017-12-20T05:00:14.050Z,43.10
2017-12-20T05:00:49.440Z,43.20
2017-12-20T05:01:24.544Z,42.10
2017-12-20T05:01:59.933Z,42.80
2017-12-20T05:02:35.336Z,44.50
2017-12-20T05:03:10.812Z,43.70
2017-12-20T05:03:46.204Z,41.80
2017-12-20T05:04:21.578Z,42.20
2017-12-20T05:04:56.884Z,41.80
2017-12-20T05:05:32.153Z,41.80
2017-12-20T05:06:07.545Z,43.20
2017-12-20T05:06:42.949Z,42.50
2017-12-20T05:07:18.145Z,41.60
2017-12-20T05:07:54.137Z,40.80
2017-12-20T05:08:29.401Z,42.20
2017-12-20T05:09:04.609Z,42.70
2017-12-20T05:09:40.082Z,41.10
2017-12-20T05:10:15.581Z,41.10
2017-12-20T05:10:50.749Z,42.80
2017-12-20T05:11:25.841Z,43.30
2017-12-20T05:12:00.938Z,44.30
2017-12-20T05:12:36.130Z,43.60
2017-12-20T05:13:11.419Z,43.30
2017-12-20T05:13:46.694Z,44.10
2017-12-20T05:14:22.031Z,45.00
2017-12-20T05:14:57.053Z,46.10
2017-12-20T05:15:32.249Z,44.20
2017-12-20T05:16:07.836Z,43.30
2017-12-20T05:16:43.225Z,43.80
2017-12-20T05:17:18.491Z,43.00
2017-12-20T05:17:53.916Z,42.70
2017-12-20T05:18:29.918Z,43.10
2017-12-20T05:19:05.086Z,43.00
2017-12-20T05:19:40.578Z,43.20
2017-12-20T05:20:15.950Z,43.00
2017-12-20T05:20:51.134Z,44.30
2017-12-20T05:21:26.202Z,45.50
2017-12-20T05:22:01.698Z,45.40
2017-12-20T05:22:36.873Z,46.20
2017-12-20T05:23:12.302Z,44.50
2017-12-20T05:23:47.603Z,44.20
2017-12-20T05:24:23.074Z,43.40
2017-12-20T05:24:59.586Z,43.00
2017-12-20T05:25:35.149Z,44.80
2017-12-20T05:26:10.355Z,43.80
2017-12-20T05:26:45.626Z,43.70
2017-12-20T05:27:20.825Z,44.00
2017-12-20T05:27:56.100Z,43.30
2017-12-20T05:28:31.625Z,44.40
2017-12-20T05:29:06.819Z,45.70
2017-12-20T05:29:41.890Z,45.40
2017-12-20T05:30:17.196Z,45.10
2017-12-20T05:30:52.361Z,45.70
2017-12-20T05:31:27.658Z,44.20
2017-12-20T05:32:02.828Z,45.10
2017-12-20T05:32:38.233Z,46.20
2017-12-20T05:33:13.806Z,45.50
2017-12-20T05:33:49.118Z,44.70
2017-12-20T05:34:24.600Z,44.70
2017-12-20T05:34:59.888Z,45.20
2017-12-20T05:35:35.489Z,45.20
2017-12-20T05:36:10.653Z,44.00
2017-12-20T05:36:45.750Z,45.70
2017-12-20T05:37:21.018Z,46.00
2017-12-20T05:37:56.516Z,45.50
2017-12-20T05:38:31.787Z,45.00
2017-12-20T05:39:07.100Z,44.60
2017-12-20T05:39:42.571Z,45.40
2017-12-20T05:40:17.970Z,44.50
2017-12-20T05:40:53.463Z,45.10
2017-12-20T05:41:28.628Z,46.90
2017-12-20T05:42:03.921Z,47.40
2017-12-20T05:42:39.206Z,47.30
2017-12-20T05:43:14.504Z,46.30
2017-12-20T05:43:49.877Z,47.50
2017-12-20T05:44:25.398Z,47.80
2017-12-20T05:45:01.071Z,46.70
2017-12-20T05:45:36.370Z,44.60
2017-12-20T05:46:12.065Z,45.30
2017-12-20T05:46:47.543Z,46.00
2017-12-20T05:47:22.733Z,46.40
2017-12-20T05:47:57.908Z,47.10
2017-12-20T05:48:33.201Z,46.60
2017-12-20T05:49:08.381Z,47.60
2017-12-20T05:49:43.603Z,48.40
2017-12-20T05:50:19.072Z,45.70
2017-12-20T05:50:54.463Z,45.00
2017-12-20T05:51:29.633Z,43.00
2017-12-20T05:52:04.924Z,43.50
2017-12-20T05:52:40.520Z,44.90
2017-12-20T05:53:15.802Z,45.20
2017-12-20T05:53:51.190Z,45.00
2017-12-20T05:54:26.263Z,45.40
2017-12-20T05:55:01.574Z,42.80
2017-12-20T05:55:37.039Z,43.20
2017-12-20T05:56:12.538Z,43.40
2017-12-20T05:56:47.911Z,42.90
2017-12-20T05:57:23.508Z,43.90
2017-12-20T05:57:58.704Z,43.60
2017-12-20T05:58:34.180Z,42.40
2017-12-20T05:59:09.566Z,43.80
2017-12-20T05:59:45.033Z,45.50
2017-12-20T06:00:20.154Z,45.70
2017-12-20T06:00:55.419Z,44.20
2017-12-20T06:01:30.729Z,42.30
2017-12-20T06:02:05.989Z,43.40
2017-12-20T06:02:41.294Z,43.90
2017-12-20T06:03:16.596Z,42.20
2017-12-20T06:03:52.062Z,41.10
2017-12-20T06:04:27.285Z,41.00
2017-12-20T06:05:02.751Z,41.30
2017-12-20T06:05:39.976Z,42.20
2017-12-20T06:06:15.458Z,42.80
2017-12-20T06:06:50.654Z,42.40
2017-12-20T06:07:26.023Z,44.30
2017-12-20T06:08:02.022Z,43.10
2017-12-20T06:08:37.330Z,40.60
2017-12-20T06:09:12.497Z,41.20
2017-12-20T06:09:47.885Z,42.40
2017-12-20T06:10:23.164Z,43.10
2017-12-20T06:10:58.463Z,44.20
2017-12-20T06:11:33.731Z,42.80
2017-12-20T06:12:09.129Z,40.70
2017-12-20T06:12:44.308Z,42.00
2017-12-20T06:13:19.596Z,43.80
2017-12-20T06:13:55.975Z,41.60
2017-12-20T06:14:31.169Z,40.80
2017-12-20T06:15:06.585Z,40.40
2017-12-20T06:15:42.255Z,40.90
2017-12-20T06:16:17.383Z,40.90
2017-12-20T06:16:55.064Z,40.50
2017-12-20T06:17:30.355Z,41.90
2017-12-20T06:18:07.030Z,41.30
2017-12-20T06:18:43.818Z,40.50
2017-12-20T06:19:19.119Z,41.40
2017-12-20T06:19:54.190Z,41.70
2017-12-20T06:20:29.480Z,40.50
2017-12-20T06:21:04.955Z,40.20
2017-12-20T06:21:40.172Z,40.00
2017-12-20T06:22:15.439Z,41.10
2017-12-20T06:22:50.741Z,39.30
2017-12-20T06:23:26.041Z,40.50
2017-12-20T06:24:01.240Z,41.20
2017-12-20T06:24:36.456Z,41.50
2017-12-20T06:25:11.753Z,40.00
2017-12-20T06:25:47.249Z,40.30
2017-12-20T06:26:22.315Z,39.30
2017-12-20T06:26:57.540Z,40.70
2017-12-20T06:27:33.005Z,41.40
2017-12-20T06:28:08.503Z,41.10
2017-12-20T06:28:47.763Z,42.30
2017-12-20T06:29:23.068Z,40.10
2017-12-20T06:29:58.442Z,41.10
2017-12-20T06:30:33.640Z,41.80
2017-12-20T06:31:12.244Z,40.60
2017-12-20T06:31:47.413Z,39.60
2017-12-20T06:32:29.937Z,38.50
2017-12-20T06:33:05.206Z,39.40
2017-12-20T06:33:41.607Z,41.20
2017-12-20T06:34:16.970Z,41.60
2017-12-20T06:34:52.266Z,40.00
2017-12-20T06:35:27.564Z,41.70
2017-12-20T06:36:02.949Z,40.30
2017-12-20T06:36:38.237Z,41.10
2017-12-20T06:37:14.106Z,40.10
2017-12-20T06:37:50.451Z,39.60
2017-12-20T06:38:25.920Z,39.50
2017-12-20T06:39:02.425Z,39.40
2017-12-20T06:39:37.886Z,40.40
2017-12-20T06:40:13.176Z,39.40
2017-12-20T06:40:48.383Z,39.00
2017-12-20T06:41:25.358Z,38.50
2017-12-20T06:42:00.944Z,37.40
2017-12-20T06:42:36.412Z,38.00
2017-12-20T06:43:11.831Z,37.40
2017-12-20T06:43:46.996Z,38.60
2017-12-20T06:44:22.306Z,38.40
2017-12-20T06:45:03.901Z,37.70
2017-12-20T06:45:39.196Z,37.80
2017-12-20T06:46:14.399Z,39.60
2017-12-20T06:46:53.065Z,39.30
2017-12-20T06:47:29.262Z,37.60
2017-12-20T06:48:04.529Z,38.20
2017-12-20T06:51:19.973Z,41.70
2017-12-20T06:51:55.347Z,41.00
2017-12-20T06:52:30.898Z,40.60
2017-12-20T06:53:06.079Z,40.60
2017-12-20T06:53:41.181Z,39.40
2017-12-20T06:54:16.730Z,39.60
2017-12-20T06:54:52.131Z,42.20
2017-12-20T06:55:27.384Z,41.80
2017-12-20T06:56:02.857Z,40.50
2017-12-20T06:56:38.218Z,39.30
2017-12-20T06:57:13.496Z,39.40
2017-12-20T06:57:48.643Z,40.20
2017-12-20T06:58:24.014Z,40.50
2017-12-20T06:58:59.494Z,41.50
2017-12-20T06:59:34.756Z,41.70
2017-12-20T07:00:10.260Z,42.10
2017-12-20T07:00:45.767Z,42.00
2017-12-20T07:01:20.798Z,42.10
2017-12-20T07:01:56.564Z,44.10
2017-12-20T07:02:31.941Z,40.70
2017-12-20T07:03:06.989Z,41.20
2017-12-20T07:03:42.471Z,43.20
2017-12-20T07:04:17.853Z,43.00
2017-12-20T07:04:53.001Z,42.80
2017-12-20T07:05:28.098Z,41.50
2017-12-20T07:06:03.354Z,41.50
2017-12-20T07:06:38.726Z,39.70
2017-12-20T07:07:14.388Z,41.60
2017-12-20T07:09:53.998Z,40.90
2017-12-20T07:10:29.290Z,41.60
2017-12-20T07:11:04.557Z,41.30
2017-12-20T07:11:39.904Z,42.60
2017-12-20T07:12:18.282Z,42.40
2017-12-20T07:12:53.560Z,41.90
2017-12-20T07:13:28.901Z,42.40
2017-12-20T07:14:04.775Z,41.20
2017-12-20T07:14:40.122Z,40.70
2017-12-20T07:15:15.419Z,42.20
2017-12-20T07:15:50.999Z,43.10
2017-12-20T07:16:26.176Z,42.40
2017-12-20T07:17:01.639Z,42.80
2017-12-20T07:17:41.109Z,43.60
2017-12-20T07:18:19.791Z,42.70
2017-12-20T07:19:01.066Z,43.60
2017-12-20T07:19:36.141Z,42.20
2017-12-20T07:20:11.397Z,41.70
2017-12-20T07:20:47.573Z,41.40
2017-12-20T07:21:22.952Z,39.70
2017-12-20T07:21:58.335Z,41.00
2017-12-20T07:22:33.419Z,40.90
2017-12-20T07:23:08.567Z,40.80
2017-12-20T07:23:43.846Z,40.40
2017-12-20T07:24:19.193Z,39.60
2017-12-20T07:24:54.589Z,40.30
2017-12-20T07:25:29.846Z,41.10
2017-12-20T07:26:05.029Z,42.00
2017-12-20T07:26:40.318Z,41.70
2017-12-20T07:27:15.496Z,41.00
2017-12-20T07:27:52.186Z,41.40
2017-12-20T07:28:27.442Z,42.20
2017-12-20T07:29:02.624Z,41.80
2017-12-20T07:29:38.581Z,39.80
2017-12-20T07:30:13.788Z,40.80
2017-12-20T07:30:51.711Z,41.90
2017-12-20T07:31:26.898Z,42.10
2017-12-20T07:32:02.290Z,41.20
2017-12-20T07:32:37.662Z,42.10
2017-12-20T07:33:13.255Z,41.10
2017-12-20T07:33:48.719Z,39.00
2017-12-20T07:34:24.095Z,39.60
2017-12-20T07:34:59.660Z,41.00
2017-12-20T07:35:34.944Z,41.40
2017-12-20T07:36:10.403Z,41.70
2017-12-20T07:36:45.585Z,42.70
2017-12-20T07:37:21.068Z,40.70
2017-12-20T07:37:58.657Z,40.10
2017-12-20T07:38:33.943Z,40.60
2017-12-20T07:39:09.319Z,41.60
2017-12-20T07:39:45.300Z,40.70
2017-12-20T07:40:20.659Z,41.40
2017-12-20T07:41:00.040Z,40.60